Time,TemperatureF,DewpointF,PressureIn,WindDirection,WindDirectionDegrees,WindSpeedMPH,WindSpeedGustMPH,Humidity,HourlyPrecipIn,Conditions,Clouds,dailyrainin,SoftwareType,DateUTC
2013-03-18 00:00:00,60.4,50.2,29.92,SE,131,1.0,4.0,69,0.00,,---,0.00,VWS V14.01,2013-03-18 04:00:00,
2013-03-18 00:10:00,60.2,50.0,29.93,SE,130,1.0,2.0,69,0.00,,,0.00,weatherlink.com 1.10,2013-03-18 04:10:00,
2013-03-18 00:26:00,59.9,50.0,29.92,SE,134,1.0,4.0,71,0.00,,,0.00,weatherlink.com 1.10,2013-03-18 04:26:00,
2013-03-18 00:43:00,59.6,51.0,29.91,ESE,121,1.0,4.0,73,0.00,,,0.00,weatherlink.com 1.10,2013-03-18 04:43:00,
2013-03-18 01:00:00,59.3,51.0,29.92,SE,144,0.0,3.0,74,0.00,,,0.00,weatherlink.com 1.10,2013-03-18 05:00:00,
2013-03-18 01:15:00,59.4,51.0,29.91,SSE,150,1.0,5.0,75,0.00,,,0.00,weatherlink.com 1.10,2013-03-18 05:15:00,
2013-03-18 01:33:00,59.3,52.0,29.91,South,175,4.0,5.0,76,0.00,,,0.00,weatherlink.com 1.10,2013-03-18 05:33:00,
2013-03-18 01:49:00,59.1,52.0,29.91,SE,142,3.0,5.0,78,0.00,,,0.00,weatherlink.com 1.10,2013-03-18 05:49:00,
2013-03-18 02:00:00,58.9,52.4,29.92,SE,136,3.0,7.0,79,0.00,,---,0.00,VWS V14.01,2013-03-18 06:00:00,
2013-03-18 02:05:00,58.8,52.0,29.92,SSE,165,1.0,7.0,79,0.00,,,0.00,weatherlink.com 1.10,2013-03-18 06:05:00,
2013-03-18 02:21:00,58.6,53.0,29.92,SSE,149,4.0,9.0,81,0.00,,,0.00,weatherlink.com 1.10,2013-03-18 06:21:00,
2013-03-18 02:38:00,58.4,53.0,29.92,SSE,153,3.0,7.0,82,0.00,,,0.00,weatherlink.com 1.10,2013-03-18 06:38:00,
2013-03-18 02:54:00,58.2,53.0,29.92,SSE,155,2.0,6.0,84,0.00,,,0.00,weatherlink.com 1.10,2013-03-18 06:54:00,
2013-03-18 03:11:00,58.1,54.0,29.92,South,184,2.0,6.0,85,0.00,,,0.00,weatherlink.com 1.10,2013-03-18 07:11:00,
2013-03-18 03:27:00,58.0,54.0,29.92,SSE,160,2.0,5.0,87,0.00,,,0.00,weatherlink.com 1.10,2013-03-18 07:27:00,
2013-03-18 03:44:00,57.9,54.0,29.92,SE,146,4.0,7.0,88,0.00,,,0.00,weatherlink.com 1.10,2013-03-18 07:44:00,
2013-03-18 04:00:00,57.8,54.0,29.92,ESE,111,1.0,3.0,88,0.00,,,0.00,weatherlink.com 1.10,2013-03-18 08:00:00,
2013-03-18 04:33:00,56.7,53.0,29.92,East,96,3.0,6.0,86,0.00,,,0.00,weatherlink.com 1.10,2013-03-18 08:33:00,
2013-03-18 04:50:00,56.2,53.0,29.92,SSE,153,2.0,7.0,88,0.00,,,0.00,weatherlink.com 1.10,2013-03-18 08:50:00,
2013-03-18 05:06:00,55.2,51.0,29.92,East,92,7.0,10.0,86,0.00,,,0.00,weatherlink.com 1.10,2013-03-18 09:06:00,
2013-03-18 05:22:00,54.2,49.0,29.93,ESE,115,7.0,12.0,83,0.00,,,0.00,weatherlink.com 1.10,2013-03-18 09:22:00,
2013-03-18 05:39:00,52.3,46.0,29.93,East,98,3.0,12.0,80,0.00,,,0.00,weatherlink.com 1.10,2013-03-18 09:39:00,
2013-03-18 05:55:00,50.9,45.0,29.93,ENE,69,5.0,11.0,80,0.00,,,0.00,weatherlink.com 1.10,2013-03-18 09:55:00,
2013-03-18 06:00:00,50.4,44.5,29.93,ESE,116,4.0,15.0,80,0.00,,---,0.00,VWS V14.01,2013-03-18 10:00:00,
2013-03-18 06:11:00,49.7,45.0,29.94,ENE,76,3.0,11.0,83,0.00,,,0.00,weatherlink.com 1.10,2013-03-18 10:11:00,
2013-03-18 06:28:00,48.9,45.0,29.95,ENE,76,3.0,7.0,85,0.00,,,0.00,weatherlink.com 1.10,2013-03-18 10:28:00,
2013-03-18 06:45:00,48.1,44.0,29.94,East,92,3.0,12.0,85,0.00,,,0.00,weatherlink.com 1.10,2013-03-18 10:45:00,
2013-03-18 07:01:00,47.7,43.0,29.96,ESE,109,3.0,12.0,85,0.00,,,0.00,weatherlink.com 1.10,2013-03-18 11:01:00,
2013-03-18 07:17:00,47.6,44.0,29.97,NE,42,3.0,10.0,86,0.00,,,0.00,weatherlink.com 1.10,2013-03-18 11:17:00,
2013-03-18 07:35:00,46.9,43.0,29.97,East,80,5.0,12.0,87,0.00,,,0.00,weatherlink.com 1.10,2013-03-18 11:35:00,
2013-03-18 07:51:00,46.4,43.0,29.98,ESE,111,3.0,11.0,88,0.00,,,0.00,weatherlink.com 1.10,2013-03-18 11:51:00,
2013-03-18 08:00:00,46.3,43.2,29.98,NE,38,4.0,12.0,89,0.00,,---,0.00,VWS V14.01,2013-03-18 12:00:00,
2013-03-18 08:07:00,46.1,43.0,29.98,SE,144,3.0,12.0,89,0.00,,,0.00,weatherlink.com 1.10,2013-03-18 12:07:00,
2013-03-18 08:23:00,45.9,43.0,29.98,ENE,70,4.0,9.0,90,0.00,,,0.00,weatherlink.com 1.10,2013-03-18 12:23:00,
2013-03-18 08:40:00,45.6,43.0,29.98,NE,49,6.0,10.0,91,0.00,,,0.00,weatherlink.com 1.10,2013-03-18 12:40:00,
2013-03-18 08:56:00,45.4,43.0,29.98,ESE,121,2.0,10.0,91,0.00,,,0.00,weatherlink.com 1.10,2013-03-18 12:56:00,
2013-03-18 09:14:00,45.3,43.0,29.98,ENE,73,3.0,9.0,93,0.00,,,0.00,weatherlink.com 1.10,2013-03-18 13:14:00,
2013-03-18 09:29:00,45.1,44.0,29.98,East,92,5.0,9.0,94,0.00,,,0.00,weatherlink.com 1.10,2013-03-18 13:29:00,
2013-03-18 09:46:00,45.0,44.0,29.98,East,90,2.0,10.0,95,0.00,,,0.00,weatherlink.com 1.10,2013-03-18 13:46:00,
2013-03-18 10:00:00,45.0,43.7,29.97,ENE,57,4.0,12.0,95,0.01,,---,0.01,VWS V14.01,2013-03-18 14:00:00,
2013-03-18 10:03:00,45.0,44.0,29.96,East,81,3.0,11.0,95,0.01,,,0.01,weatherlink.com 1.10,2013-03-18 14:03:00,
2013-03-18 10:18:00,44.8,44.0,29.96,ENE,69,5.0,14.0,95,0.01,,,0.01,weatherlink.com 1.10,2013-03-18 14:18:00,
2013-03-18 10:35:00,44.5,43.0,29.97,East,85,10.0,16.0,95,0.01,,,0.01,weatherlink.com 1.10,2013-03-18 14:35:00,
2013-03-18 10:52:00,44.6,44.0,29.96,ENE,70,9.0,13.0,96,0.01,,,0.01,weatherlink.com 1.10,2013-03-18 14:52:00,
2013-03-18 11:09:00,44.8,44.0,29.97,ESE,117,4.0,10.0,96,0.00,,,0.01,weatherlink.com 1.10,2013-03-18 15:09:00,
2013-03-18 11:24:00,44.8,44.0,29.97,ENE,74,4.0,10.0,96,0.00,,,0.01,weatherlink.com 1.10,2013-03-18 15:24:00,
2013-03-18 11:42:00,44.5,44.0,29.96,East,94,1.0,11.0,96,0.00,,,0.01,weatherlink.com 1.10,2013-03-18 15:42:00,
2013-03-18 11:57:00,44.6,44.0,29.96,ESE,109,5.0,11.0,96,0.00,,,0.01,weatherlink.com 1.10,2013-03-18 15:57:00,
2013-03-18 12:00:00,44.6,43.5,29.96,ENE,78,4.0,16.0,96,0.00,,---,0.01,VWS V14.01,2013-03-18 16:00:00,
2013-03-18 12:14:00,44.3,43.0,29.96,ENE,78,3.0,9.0,96,0.00,,,0.01,weatherlink.com 1.10,2013-03-18 16:14:00,
2013-03-18 12:31:00,44.4,43.0,29.95,ENE,68,11.0,11.0,96,0.00,,,0.01,weatherlink.com 1.10,2013-03-18 16:31:00,
2013-03-18 12:47:00,44.4,43.0,29.93,ENE,74,7.0,12.0,96,0.00,,,0.01,weatherlink.com 1.10,2013-03-18 16:47:00,
2013-03-18 13:04:00,44.2,43.0,29.93,East,80,5.0,13.0,96,0.00,,,0.01,weatherlink.com 1.10,2013-03-18 17:04:00,
2013-03-18 13:20:00,44.2,43.0,29.92,ENE,64,1.0,10.0,96,0.00,,,0.01,weatherlink.com 1.10,2013-03-18 17:20:00,
2013-03-18 13:36:00,44.0,43.0,29.91,East,91,3.0,12.0,96,0.00,,,0.01,weatherlink.com 1.10,2013-03-18 17:36:00,
2013-03-18 13:53:00,44.0,43.0,29.90,NE,55,3.0,13.0,96,0.00,,,0.01,weatherlink.com 1.10,2013-03-18 17:53:00,
2013-03-18 14:00:00,44.3,43.2,29.91,ENE,67,4.0,12.0,96,0.00,,---,0.01,VWS V14.01,2013-03-18 18:00:00,
2013-03-18 14:09:00,44.2,43.0,29.90,SE,127,4.0,11.0,96,0.00,,,0.01,weatherlink.com 1.10,2013-03-18 18:09:00,
2013-03-18 14:25:00,44.1,43.0,29.90,East,91,5.0,12.0,96,0.00,,,0.01,weatherlink.com 1.10,2013-03-18 18:25:00,
2013-03-18 14:42:00,43.8,43.0,29.89,East,88,3.0,12.0,96,0.00,,,0.01,weatherlink.com 1.10,2013-03-18 18:42:00,
2013-03-18 14:58:00,43.9,43.0,29.88,NE,52,4.0,9.0,97,0.00,,,0.01,weatherlink.com 1.10,2013-03-18 18:58:00,
2013-03-18 15:14:00,44.0,43.0,29.87,NNE,28,2.0,10.0,97,0.00,,,0.01,weatherlink.com 1.10,2013-03-18 19:14:00,
2013-03-18 15:32:00,43.6,43.0,29.86,NNE,18,5.0,10.0,97,0.00,,,0.01,weatherlink.com 1.10,2013-03-18 19:32:00,
2013-03-18 15:48:00,43.6,43.0,29.86,East,83,3.0,8.0,97,0.00,,,0.01,weatherlink.com 1.10,2013-03-18 19:48:00,
2013-03-18 16:00:00,43.4,42.6,29.86,East,80,3.0,13.0,97,0.00,,---,0.01,VWS V14.01,2013-03-18 20:00:00,
2013-03-18 16:05:00,43.3,42.0,29.86,ENE,65,5.0,11.0,96,0.00,,,0.01,weatherlink.com 1.10,2013-03-18 20:05:00,
2013-03-18 16:37:00,43.4,43.0,29.86,North,350,4.0,7.0,97,0.01,,,0.02,weatherlink.com 1.10,2013-03-18 20:37:00,
2013-03-18 16:53:00,43.6,43.0,29.86,ENE,76,5.0,7.0,97,0.02,,,0.03,weatherlink.com 1.10,2013-03-18 20:53:00,
2013-03-18 17:10:00,43.7,43.0,29.85,East,91,2.0,8.0,97,0.02,,,0.03,weatherlink.com 1.10,2013-03-18 21:10:00,
2013-03-18 17:26:00,43.6,43.0,29.85,NE,54,3.0,7.0,97,0.01,,,0.03,weatherlink.com 1.10,2013-03-18 21:26:00,
2013-03-18 17:42:00,43.7,43.0,29.83,East,88,5.0,10.0,97,0.01,,,0.03,weatherlink.com 1.10,2013-03-18 21:42:00,
2013-03-18 18:00:00,43.8,43.0,29.83,East,93,1.0,9.0,97,0.02,,---,0.03,VWS V14.01,2013-03-18 22:00:00,
2013-03-18 18:16:00,43.9,43.0,29.84,NE,38,4.0,6.0,97,0.00,,,0.03,weatherlink.com 1.10,2013-03-18 22:16:00,
2013-03-18 18:32:00,44.1,43.0,29.86,WNW,287,7.0,9.0,97,0.00,,,0.03,weatherlink.com 1.10,2013-03-18 22:32:00,
2013-03-18 18:48:00,44.2,43.0,29.93,West,262,4.0,17.0,97,0.05,,,0.08,weatherlink.com 1.10,2013-03-18 22:48:00,
2013-03-18 19:05:00,44.6,44.0,29.95,NW,325,1.0,6.0,97,0.10,,,0.13,weatherlink.com 1.10,2013-03-18 23:05:00,
2013-03-18 19:38:00,45.5,45.0,29.86,East,93,6.0,8.0,97,0.18,,,0.21,weatherlink.com 1.10,2013-03-18 23:38:00,
2013-03-18 19:54:00,45.3,45.0,29.78,SE,132,4.0,12.0,97,0.10,,,0.21,weatherlink.com 1.10,2013-03-18 23:54:00,
2013-03-18 20:00:00,45.4,44.6,29.81,East,96,3.0,15.0,97,0.18,,---,0.21,VWS V14.01,2013-03-19 00:00:00,
2013-03-18 20:10:00,45.6,45.0,29.81,ESE,103,4.0,7.0,97,0.07,,,0.21,weatherlink.com 1.10,2013-03-19 00:10:00,
2013-03-18 20:27:00,45.6,45.0,29.80,ENE,57,4.0,6.0,97,0.01,,,0.21,weatherlink.com 1.10,2013-03-19 00:27:00,
2013-03-18 20:43:00,45.4,45.0,29.83,ESE,109,3.0,8.0,97,0.00,,,0.21,weatherlink.com 1.10,2013-03-19 00:43:00,
2013-03-18 20:59:00,45.1,44.0,29.84,ESE,103,4.0,8.0,97,0.00,,,0.21,weatherlink.com 1.10,2013-03-19 00:59:00,
2013-03-18 21:17:00,44.9,44.0,29.84,East,90,2.0,9.0,97,0.00,,,0.21,weatherlink.com 1.10,2013-03-19 01:17:00,
2013-03-18 21:33:00,44.8,44.0,29.84,ENE,73,2.0,6.0,97,0.00,,,0.21,weatherlink.com 1.10,2013-03-19 01:33:00,
2013-03-18 21:49:00,44.8,44.0,29.84,East,99,6.0,7.0,98,0.00,,,0.21,weatherlink.com 1.10,2013-03-19 01:49:00,
2013-03-18 22:00:00,44.8,44.3,29.84,NE,55,1.0,9.0,98,0.00,,---,0.21,VWS V14.01,2013-03-19 02:00:00,
2013-03-18 22:05:00,44.7,44.0,29.84,ENE,69,2.0,8.0,98,0.00,,,0.21,weatherlink.com 1.10,2013-03-19 02:05:00,
2013-03-18 22:22:00,44.9,44.0,29.86,NNE,24,1.0,2.0,98,0.00,,,0.21,weatherlink.com 1.10,2013-03-19 02:22:00,
2013-03-18 22:38:00,44.9,44.0,29.87,ESE,108,2.0,5.0,98,0.00,,,0.21,weatherlink.com 1.10,2013-03-19 02:38:00,
2013-03-18 22:54:00,44.9,44.0,29.86,East,86,3.0,7.0,98,0.00,,,0.21,weatherlink.com 1.10,2013-03-19 02:54:00,
2013-03-18 23:11:00,45.0,45.0,29.87,NE,35,0.0,2.0,98,0.00,,,0.21,weatherlink.com 1.10,2013-03-19 03:11:00,
2013-03-18 23:27:00,45.0,45.0,29.87,NNE,24,0.0,2.0,98,0.00,,,0.21,weatherlink.com 1.10,2013-03-19 03:27:00,
2013-03-18 23:44:00,44.9,44.0,29.88,East,85,1.0,3.0,98,0.00,,,0.21,weatherlink.com 1.10,2013-03-19 03:44:00,